Aérodrome :
LOGIN :

S'inscrire | Disclaimer

   EN    FR    IT 

 










Légende :    VFR   VFR Marginal   IFR   IFR Intensif   IFR Très Intensif
Visi : 
Plafond : 
>= 8 km
>= 3000ft
5 à 8 km
1000 à 3000 ft
1500m à 5 km
500 à 1000 ft
800 à 1500m
200 à 500 ft
< 800m
< 200 ft
Symboles :   Orages  Brouillard  Fortes neiges  Fortes précipitations  Vent > 20 kt
SIGMETs :   Divers  Orages  Givrage  Turbulence  Onde Orograph.  Cendres Volcan.






- Altitude de l'aérodrome : 2001 ft
- Code IATA : MAD


LEMD - Madrid

DERNIER METAR :
  • 031400Z 21014KT 170V240 9999 FEW060 28/10 Q1008 NOSIG

METARs EXPIRÉS :
  • 031330Z 21012KT 180V250 9999 FEW060 29/09 Q1008 NOSIG
  • 031300Z 18012KT 9999 FEW060 28/09 Q1009 NOSIG
  • 031230Z 22012KT 180V250 9999 FEW060 28/10 Q1010 NOSIG
  • 031200Z 23009KT 190V280 9999 SCT060 28/10 Q1010 NOSIG
  • 031130Z 24009KT 190V310 9999 SCT060 28/11 Q1010 NOSIG

TAF TAF LEMD
Valide du 03 à 12h jusqu'au 04 à 18h UTC


031100Z 0312/0418 23012KT 9999 SCT045 TX30/0316Z TN13/0405Z
TEMPO 0312/0320 24015G32KT
TEMPO 0316/0320 28015KT
PROB40
TEMPO 0318/0408 SHRA RA SCT040TCU
PROB30
TEMPO 0320/0408 VRB15G25KT 3000 TS SHRA SCT030CB
TEMPO 0407/0410 28012KT
BECMG 0408/0410 32015KT
TEMPO 0409/0418 34018G32KT



MET'MAP, la Météo Aéronautique d'un coup d'oeil ! - Copyright ORBIFLY Décembre 2007 - Disclaimer

ORBIFLY MET'MAP TEAM :

Programmation & Développement : Alexandra Zaïnal
Sur une idée originale de : Baudouin d'Aumeries
Assistance à la programmation : Marc-Olivier Méhu
Soutien technique & logistique : Manuel Goepfert

Contact : metmap@orbifly.com




SOURCES & CREDITS :

   NOAA